Main page
Satellite images 15-day forecastsClimateMarine weather Cyclones Lightning AirportsFAQ Newsletter About
Weather : Europe Africa North America South America Asia Australia-Oceania Others
Languages Contact

Baia Mare, Romania

latitude: 47-40N, longitude: 023-35E, elevation: 218 m


METAR: LRBM 240200Z 29004KT 260V320 CAVOK 06/05 Q1018
TAF: LRBM 231700Z 2318/2403 28008KT 9999 SCT045 TEMPO 2400/2403 5000 BR

Time: 05:25 (02:25 UTC)

Current weather observation

The report was made 25 minutes ago, at 02:00 UTC  
Wind 04 kt from the West/Northwest, varying between West and Northwest
Temperature 6°C
Humidity 93%
Pressure 1018 hPa
Visibility 10 km or more
no clouds below 1500 m and no cumulonimbus

Change units

Forecast

The report was made 09 hours and 25 minutes ago, at 17:00 UTC  
Forecast valid from 23 at 18 UTC to 24 at 03 UTC
Wind 08 kt from the West
Visibility 10 km or more
Scattered clouds at a height of 4500 ft
Temporary
from 24 at 00 UTC to 24 at 03 UTC
Visibility 5000 m
mist
The information on this site is subject to a disclaimer
Weather : Europe Africa North America South America Asia Australia-Oceania Others
Satellite images 15-day forecastsClimateMarine weather Cyclones Lightning AirportsFAQ Languages Contact Newsletter About